createdAt,value
2017-11-09T00:02:00.820Z,67.50
2017-11-09T00:04:34.861Z,53.90
2017-11-09T00:16:42.555Z,49.83
2017-11-09T00:19:09.338Z,49.90
2017-11-09T00:21:35.653Z,48.97
2017-11-09T00:24:02.655Z,52.93
2017-11-09T00:26:33.529Z,44.37
2017-11-09T00:28:59.763Z,46.30
2017-11-09T00:31:26.607Z,51.63
2017-11-09T00:33:54.741Z,54.63
2017-11-09T00:36:22.852Z,51.23
2017-11-09T00:38:49.988Z,52.80
2017-11-09T00:41:16.165Z,50.00
2017-11-09T00:43:43.522Z,50.70
2017-11-09T00:46:12.913Z,58.00
2017-11-09T00:48:39.693Z,51.70
2017-11-09T00:51:06.687Z,54.33
2017-11-09T00:53:34.013Z,52.57
2017-11-09T00:56:01.055Z,52.30
2017-11-09T00:58:29.237Z,46.50
2017-11-09T01:00:56.165Z,58.03
2017-11-09T01:03:24.824Z,54.23
2017-11-09T01:05:52.399Z,56.90
2017-11-09T01:08:18.712Z,51.60
2017-11-09T01:10:46.420Z,53.83
2017-11-09T01:13:14.259Z,52.80
2017-11-09T01:15:40.473Z,56.13
2017-11-09T01:18:07.197Z,60.23
2017-11-09T01:20:34.382Z,60.63
2017-11-09T01:23:00.719Z,52.67
2017-11-09T01:25:27.668Z,59.13
2017-11-09T01:27:54.705Z,58.07
2017-11-09T01:30:20.901Z,57.77
2017-11-09T01:32:47.938Z,56.20
2017-11-09T01:35:15.839Z,63.57
2017-11-09T01:37:42.036Z,62.93
2017-11-09T01:40:09.343Z,59.37
2017-11-09T01:42:35.620Z,48.67
2017-11-09T01:45:02.565Z,56.27
2017-11-09T01:47:28.772Z,64.50
2017-11-09T01:49:54.961Z,53.07
2017-11-09T01:52:22.050Z,58.60
2017-11-09T01:54:50.064Z,56.00
2017-11-09T01:57:17.193Z,51.63
2017-11-09T01:59:43.802Z,54.30
2017-11-09T02:02:10.746Z,54.27
2017-11-09T02:04:37.276Z,57.70
2017-11-09T02:07:04.048Z,52.00
2017-11-09T02:09:30.638Z,51.70
2017-11-09T02:11:56.851Z,49.37
2017-11-09T02:14:24.714Z,54.40
2017-11-09T02:16:51.169Z,47.17
2017-11-09T02:19:19.117Z,61.50
2017-11-09T02:21:45.321Z,52.97
2017-11-09T02:24:11.511Z,48.13
2017-11-09T02:26:38.513Z,48.70
2017-11-09T02:29:05.548Z,47.83
2017-11-09T02:31:31.757Z,52.53
2017-11-09T02:33:58.301Z,58.03
2017-11-09T02:36:25.708Z,56.43
2017-11-09T02:38:52.480Z,56.90
2017-11-09T02:41:19.444Z,64.90
2017-11-09T02:43:45.688Z,58.67
2017-11-09T02:46:11.898Z,59.53
2017-11-09T02:48:39.123Z,52.10
2017-11-09T02:51:05.796Z,66.97
2017-11-09T02:53:31.984Z,63.67
2017-11-09T02:55:58.864Z,59.63
2017-11-09T02:58:25.065Z,54.40
2017-11-09T03:00:51.264Z,57.30
2017-11-09T03:03:18.363Z,51.47
2017-11-09T03:05:45.555Z,60.37
2017-11-09T03:08:11.779Z,61.37
2017-11-09T03:10:38.526Z,65.67
2017-11-09T03:13:05.153Z,67.30
2017-11-09T03:15:31.353Z,61.43
2017-11-09T03:17:57.755Z,60.80
2017-11-09T03:20:23.948Z,64.80
2017-11-09T03:22:50.880Z,67.60
2017-11-09T03:25:18.064Z,58.80
2017-11-09T03:27:45.266Z,70.57
2017-11-09T03:30:12.107Z,66.77
2017-11-09T03:32:39.276Z,64.27
2017-11-09T03:35:09.238Z,67.27
2017-11-09T03:37:37.295Z,59.50
2017-11-09T03:40:03.602Z,59.73
2017-11-09T03:42:30.172Z,65.50
2017-11-09T03:44:58.705Z,66.07
2017-11-09T03:47:24.913Z,64.20
2017-11-09T03:49:51.397Z,54.93
2017-11-09T03:52:17.645Z,67.37
2017-11-09T03:54:43.831Z,63.97
2017-11-09T03:57:10.772Z,69.83
2017-11-09T03:59:37.022Z,61.17
2017-11-09T04:02:04.918Z,70.50
2017-11-09T04:04:32.046Z,58.10
2017-11-09T04:06:59.298Z,55.47
2017-11-09T04:09:25.756Z,60.40
2017-11-09T04:11:52.672Z,57.40
2017-11-09T04:14:18.962Z,57.93
2017-11-09T04:16:46.051Z,62.97
2017-11-09T04:19:12.448Z,58.00
2017-11-09T04:21:39.385Z,64.83
2017-11-09T04:24:06.635Z,62.80
2017-11-09T04:26:32.823Z,67.80
2017-11-09T04:29:00.027Z,62.50
2017-11-09T04:31:26.868Z,54.70
2017-11-09T04:33:53.092Z,60.30
2017-11-09T04:36:19.889Z,57.07
2017-11-09T04:38:46.059Z,61.23
2017-11-09T04:41:12.231Z,58.90
2017-11-09T04:43:38.377Z,55.50
2017-11-09T04:46:05.431Z,61.20
2017-11-09T04:48:31.614Z,57.10
2017-11-09T04:50:58.912Z,54.83
2017-11-09T04:53:25.085Z,55.83
2017-11-09T04:55:51.950Z,52.93
2017-11-09T04:58:18.566Z,50.10
2017-11-09T05:00:44.800Z,44.20
2017-11-09T05:03:12.792Z,52.87
2017-11-09T05:05:39.042Z,53.83
2017-11-09T05:08:05.251Z,52.50
2017-11-09T05:10:34.603Z,48.23
2017-11-09T05:13:01.085Z,42.97
2017-11-09T05:15:27.266Z,39.93
2017-11-09T05:17:54.264Z,38.13
2017-11-09T05:20:22.219Z,40.23
2017-11-09T05:22:48.482Z,42.23
2017-11-09T05:25:19.133Z,47.17
2017-11-09T05:27:50.610Z,45.13
2017-11-09T05:30:21.069Z,36.83
2017-11-09T05:32:50.512Z,39.37
2017-11-09T05:35:21.819Z,29.87
2017-11-09T05:37:50.787Z,28.07
2017-11-09T05:40:18.042Z,25.80
2017-11-09T05:42:46.372Z,22.30
2017-11-09T05:45:14.678Z,17.10
2017-11-09T05:47:43.780Z,16.30
2017-11-09T05:50:10.963Z,16.93
2017-11-09T05:52:39.921Z,18.03
2017-11-09T05:55:08.623Z,15.67
2017-11-09T05:57:37.154Z,13.63
2017-11-09T06:00:06.755Z,23.03
2017-11-09T06:02:34.334Z,15.13
2017-11-09T06:05:03.898Z,13.40
2017-11-09T06:07:30.674Z,13.87
2017-11-09T06:09:56.897Z,13.83
2017-11-09T06:12:24.629Z,18.57
2017-11-09T06:14:50.882Z,13.00
2017-11-09T06:17:17.162Z,13.80
2017-11-09T06:19:44.363Z,13.60
2017-11-09T06:22:10.566Z,12.13
2017-11-09T06:24:36.936Z,16.97
2017-11-09T06:27:05.921Z,14.10
2017-11-09T06:29:32.079Z,19.90
2017-11-09T06:31:58.663Z,19.80
2017-11-09T06:34:26.207Z,20.23
2017-11-09T06:36:53.589Z,20.90
2017-11-09T06:39:22.768Z,25.57
2017-11-09T06:41:50.177Z,25.90
2017-11-09T06:44:18.934Z,25.70
2017-11-09T06:46:46.460Z,30.43
2017-11-09T06:49:14.945Z,33.50
2017-11-09T06:51:46.359Z,33.77
2017-11-09T06:54:17.229Z,28.67
2017-11-09T06:56:43.936Z,32.20
2017-11-09T06:59:10.212Z,32.93
2017-11-09T07:01:36.472Z,32.80
2017-11-09T07:04:03.280Z,30.03
2017-11-09T07:06:29.899Z,33.90
2017-11-09T07:08:58.223Z,31.67
2017-11-09T07:11:24.416Z,36.20
2017-11-09T07:13:51.983Z,27.83
2017-11-09T07:16:24.620Z,29.73
2017-11-09T07:18:52.608Z,29.13
2017-11-09T07:21:21.375Z,25.53
2017-11-09T07:23:48.965Z,28.20
2017-11-09T07:26:15.198Z,25.93
2017-11-09T07:28:42.108Z,27.30
2017-11-09T07:31:10.544Z,29.53
2017-11-09T07:33:37.768Z,29.57
2017-11-09T07:36:04.018Z,28.23
2017-11-09T07:38:36.451Z,23.83
2017-11-09T07:41:03.074Z,29.30
2017-11-09T07:43:29.290Z,24.40
2017-11-09T07:45:57.595Z,25.10
2017-11-09T07:48:25.526Z,30.87
2017-11-09T07:50:54.716Z,28.77
2017-11-09T07:53:23.203Z,35.77
2017-11-09T07:55:49.439Z,30.57
2017-11-09T07:58:16.679Z,32.43
2017-11-09T08:00:42.945Z,32.17
2017-11-09T08:03:09.513Z,29.73
2017-11-09T08:05:35.708Z,30.80
2017-11-09T08:08:02.173Z,29.70
2017-11-09T08:10:29.189Z,32.40
2017-11-09T08:12:55.380Z,30.80
2017-11-09T08:15:22.240Z,32.67
2017-11-09T08:17:48.418Z,30.57
2017-11-09T08:20:14.651Z,32.00
2017-11-09T08:22:40.809Z,35.17
2017-11-09T08:25:09.881Z,33.17
2017-11-09T08:27:42.313Z,32.87
2017-11-09T08:30:17.100Z,35.87
2017-11-09T08:32:47.755Z,40.57
2017-11-09T08:35:14.051Z,35.30
2017-11-09T08:37:42.159Z,43.53
2017-11-09T08:40:08.349Z,40.23
2017-11-09T08:42:35.956Z,36.80
2017-11-09T08:45:03.608Z,43.40
2017-11-09T08:47:30.521Z,44.90
2017-11-09T08:49:57.614Z,42.67
2017-11-09T08:52:23.835Z,42.13
2017-11-09T08:54:50.051Z,44.93
2017-11-09T08:57:20.124Z,42.73
2017-11-09T08:59:46.348Z,41.23
2017-11-09T09:02:12.533Z,45.43
2017-11-09T09:04:38.753Z,44.90
2017-11-09T09:07:05.009Z,43.37
2017-11-09T09:09:31.224Z,49.20
2017-11-09T09:11:58.978Z,42.93
2017-11-09T09:14:25.216Z,53.07
2017-11-09T09:16:52.716Z,49.27
2017-11-09T09:19:19.342Z,49.37
2017-11-09T09:21:47.535Z,50.73
2017-11-09T09:24:28.670Z,51.20
2017-11-09T09:26:58.753Z,49.17
2017-11-09T09:32:24.551Z,47.60
2017-11-09T09:35:08.410Z,43.47
2017-11-09T09:37:38.253Z,46.03
2017-11-09T09:40:05.427Z,48.97
2017-11-09T09:42:33.236Z,51.23
2017-11-09T09:44:59.436Z,52.10
2017-11-09T09:47:26.052Z,43.70
2017-11-09T09:49:53.102Z,39.03
2017-11-09T09:52:20.379Z,48.63
2017-11-09T09:54:46.625Z,45.70
2017-11-09T09:57:12.901Z,49.33
2017-11-09T09:59:39.104Z,44.40
2017-11-09T10:02:05.958Z,45.83
2017-11-09T10:04:32.556Z,49.70
2017-11-09T10:06:58.773Z,42.50
2017-11-09T10:09:25.854Z,46.90
2017-11-09T10:11:52.090Z,39.63
2017-11-09T10:14:18.331Z,32.90
2017-11-09T10:16:45.070Z,32.63
2017-11-09T10:19:11.314Z,42.90
2017-11-09T10:21:39.144Z,37.47
2017-11-09T10:24:05.327Z,36.50
2017-11-09T10:26:31.512Z,29.43
2017-11-09T10:28:58.585Z,32.43
2017-11-09T10:31:26.748Z,26.73
2017-11-09T10:33:53.295Z,30.10
2017-11-09T10:36:19.511Z,30.77
2017-11-09T10:38:47.588Z,28.43
2017-11-09T10:41:14.140Z,27.80
2017-11-09T10:43:40.963Z,29.80
2017-11-09T10:46:07.194Z,28.90
2017-11-09T10:48:33.779Z,27.60
2017-11-09T10:50:59.988Z,39.43
2017-11-09T10:53:26.883Z,39.77
2017-11-09T10:55:54.435Z,33.10
2017-11-09T10:58:20.710Z,32.17
2017-11-09T11:00:47.332Z,32.43
2017-11-09T11:03:16.193Z,31.20
2017-11-09T11:05:42.481Z,36.70
2017-11-09T11:08:09.898Z,26.63
2017-11-09T11:10:36.208Z,27.37
2017-11-09T11:13:03.431Z,33.63
2017-11-09T11:15:29.652Z,30.60
2017-11-09T11:17:58.323Z,30.10
2017-11-09T11:20:24.525Z,32.53
2017-11-09T11:22:53.795Z,39.30
2017-11-09T11:25:20.572Z,36.00
2017-11-09T11:27:47.706Z,44.93
2017-11-09T11:30:13.983Z,45.17
2017-11-09T11:32:40.205Z,45.20
2017-11-09T11:35:06.988Z,55.37
2017-11-09T11:37:34.257Z,56.37
2017-11-09T11:40:02.140Z,60.13
2017-11-09T11:42:30.244Z,61.20
2017-11-09T11:44:57.159Z,58.87
2017-11-09T11:47:23.386Z,62.53
2017-11-09T11:49:52.300Z,56.37
2017-11-09T11:52:19.671Z,56.47
2017-11-09T11:54:46.312Z,57.90
2017-11-09T11:57:12.564Z,59.77
2017-11-09T11:59:41.439Z,63.57
2017-11-09T12:02:10.283Z,58.43
2017-11-09T12:04:38.152Z,40.27
2017-11-09T12:07:04.402Z,25.93
2017-11-09T12:09:31.537Z,29.50
2017-11-09T12:12:00.543Z,25.63
2017-11-09T12:14:26.850Z,32.20
2017-11-09T12:16:53.105Z,29.10
2017-11-09T12:19:19.347Z,30.23
2017-11-09T12:21:45.835Z,43.63
2017-11-09T12:24:12.296Z,38.63
2017-11-09T12:26:38.583Z,37.23
2017-11-09T12:29:04.816Z,40.87
2017-11-09T12:31:31.027Z,39.40
2017-11-09T12:33:57.255Z,48.73
2017-11-09T12:36:24.016Z,52.43
2017-11-09T12:38:50.270Z,37.77
2017-11-09T12:41:16.993Z,41.13
2017-11-09T12:43:44.953Z,40.67
2017-11-09T12:46:11.708Z,44.13
2017-11-09T12:48:39.504Z,55.30
2017-11-09T12:51:06.552Z,50.67
2017-11-09T13:03:13.502Z,48.43
2017-11-09T13:05:40.467Z,52.60
2017-11-09T13:08:09.112Z,53.27
2017-11-09T13:10:36.190Z,46.63
2017-11-09T13:13:02.483Z,43.93
2017-11-09T13:15:29.302Z,41.07
2017-11-09T13:17:55.523Z,51.70
2017-11-09T13:20:22.754Z,51.57
2017-11-09T13:22:49.782Z,51.40
2017-11-09T13:25:16.006Z,50.57
2017-11-09T13:27:42.288Z,45.40
2017-11-09T13:30:09.329Z,49.23
2017-11-09T13:32:35.569Z,55.57
2017-11-09T13:35:01.768Z,48.67
2017-11-09T13:37:28.146Z,50.93
2017-11-09T13:39:54.712Z,48.37
2017-11-09T13:42:20.911Z,53.83
2017-11-09T13:44:47.327Z,50.43
2017-11-09T13:47:13.598Z,44.60
2017-11-09T13:49:39.849Z,46.60
2017-11-09T13:52:08.624Z,55.43
2017-11-09T13:54:34.841Z,46.63
2017-11-09T13:57:01.096Z,51.83
2017-11-09T13:59:27.432Z,49.20
2017-11-09T14:01:53.629Z,52.40
2017-11-09T14:04:20.613Z,43.70
2017-11-09T14:06:46.893Z,46.87
2017-11-09T14:09:14.805Z,46.20
2017-11-09T14:11:41.749Z,42.30
2017-11-09T14:14:07.937Z,50.70
2017-11-09T14:16:34.513Z,44.33
2017-11-09T14:19:02.190Z,44.17
2017-11-09T14:21:28.808Z,39.40
2017-11-09T14:23:55.112Z,41.10
2017-11-09T14:26:23.271Z,54.10
2017-11-09T14:28:49.493Z,33.57
2017-11-09T14:31:15.782Z,42.77
2017-11-09T14:33:41.957Z,44.20
2017-11-09T14:36:08.158Z,44.80
2017-11-09T14:38:36.262Z,41.43
2017-11-09T14:41:02.655Z,39.80
2017-11-09T14:43:28.890Z,44.80
2017-11-09T14:45:55.137Z,37.67
2017-11-09T14:48:21.308Z,39.70
2017-11-09T14:50:47.541Z,42.47
2017-11-09T14:53:13.889Z,46.10
2017-11-09T14:55:40.242Z,42.80
2017-11-09T14:58:07.250Z,41.07
2017-11-09T15:00:33.468Z,48.37
2017-11-09T15:02:59.952Z,46.20
2017-11-09T15:05:26.137Z,48.40
2017-11-09T15:07:53.132Z,42.30
2017-11-09T15:10:19.317Z,41.80
2017-11-09T15:12:46.575Z,36.80
2017-11-09T15:15:12.829Z,38.00
2017-11-09T15:17:40.226Z,44.67
2017-11-09T15:20:06.532Z,41.13
2017-11-09T15:22:33.167Z,40.00
2017-11-09T15:25:01.143Z,40.00
2017-11-09T15:27:28.345Z,38.90
2017-11-09T15:29:55.363Z,47.30
2017-11-09T15:32:24.494Z,41.23
2017-11-09T15:34:50.794Z,42.27
2017-11-09T15:37:17.736Z,41.50
2017-11-09T15:39:43.975Z,36.80
2017-11-09T15:42:10.432Z,39.47
2017-11-09T15:44:38.006Z,48.50
2017-11-09T15:47:06.016Z,42.93
2017-11-09T15:49:32.241Z,39.40
2017-11-09T15:51:59.349Z,38.33
2017-11-09T15:54:25.620Z,35.57
2017-11-09T15:56:52.948Z,36.80
2017-11-09T15:59:19.929Z,36.37
2017-11-09T16:01:46.237Z,32.03
2017-11-09T16:04:12.479Z,34.83
2017-11-09T16:06:45.163Z,39.00
2017-11-09T16:09:11.681Z,37.63
2017-11-09T16:11:37.898Z,39.10
2017-11-09T16:14:05.709Z,44.43
2017-11-09T16:16:36.271Z,38.20
2017-11-09T16:19:03.551Z,42.07
2017-11-09T16:21:38.004Z,40.57
2017-11-09T16:24:04.305Z,43.37
2017-11-09T16:26:30.601Z,34.63
2017-11-09T16:29:03.082Z,41.30
2017-11-09T16:31:29.411Z,37.20
2017-11-09T16:33:55.638Z,31.73
2017-11-09T16:36:21.857Z,36.73
2017-11-09T16:38:48.086Z,37.50
2017-11-09T16:41:14.339Z,34.77
2017-11-09T16:43:41.798Z,35.50
2017-11-09T16:46:08.675Z,35.33
2017-11-09T16:48:34.920Z,39.40
2017-11-09T16:51:01.252Z,27.87
2017-11-09T16:53:27.583Z,32.50
2017-11-09T17:08:43.862Z,35.70
2017-11-09T17:11:10.816Z,30.63
2017-11-09T17:13:37.195Z,33.27
2017-11-09T17:16:04.449Z,36.07
2017-11-09T17:18:33.549Z,34.30
2017-11-09T17:20:59.949Z,29.60
2017-11-09T17:23:26.268Z,39.73
2017-11-09T17:25:53.790Z,32.60
2017-11-09T17:28:20.833Z,36.63
2017-11-09T17:30:47.430Z,31.73
2017-11-09T17:33:14.400Z,32.40
2017-11-09T17:35:40.664Z,36.63
2017-11-09T17:38:06.878Z,41.83
2017-11-09T17:40:33.715Z,38.80
2017-11-09T17:42:59.976Z,38.80
2017-11-09T17:45:27.048Z,39.60
2017-11-09T17:47:53.631Z,39.33
2017-11-09T17:50:19.930Z,38.90
2017-11-09T17:52:49.214Z,49.20
2017-11-09T17:55:15.420Z,36.30
2017-11-09T17:57:41.633Z,38.30
2017-11-09T18:00:17.105Z,37.67
2017-11-09T18:02:44.482Z,31.50
2017-11-09T18:05:10.675Z,35.83
2017-11-09T18:07:37.587Z,46.17
2017-11-09T18:10:04.469Z,44.83
2017-11-09T18:22:11.880Z,41.80
2017-11-09T18:24:38.820Z,32.60
2017-11-09T18:27:05.892Z,33.67
2017-11-09T18:29:33.045Z,29.17
2017-11-09T18:32:00.284Z,32.10
2017-11-09T18:34:26.493Z,35.33
2017-11-09T18:36:53.499Z,36.43
2017-11-09T18:39:20.661Z,30.10
2017-11-09T18:41:48.339Z,40.33
2017-11-09T18:44:14.809Z,31.17
2017-11-09T18:46:42.788Z,37.60
2017-11-09T18:49:11.998Z,36.37
2017-11-09T18:54:30.380Z,30.00
2017-11-09T18:56:56.921Z,30.63
2017-11-09T18:59:23.989Z,32.07
2017-11-09T19:01:51.072Z,35.73
2017-11-09T19:04:19.191Z,32.73
2017-11-09T19:06:45.441Z,36.03
2017-11-09T19:09:11.735Z,28.87
2017-11-09T19:11:38.998Z,34.13
2017-11-09T19:14:05.245Z,29.03
2017-11-09T19:16:31.854Z,34.07
2017-11-09T19:18:58.509Z,36.67
2017-11-09T19:21:24.766Z,34.30
2017-11-09T19:23:51.024Z,33.30
2017-11-09T19:26:17.324Z,31.30
2017-11-09T19:28:43.853Z,29.20
2017-11-09T19:31:11.122Z,30.50
2017-11-09T19:33:37.337Z,36.87
2017-11-09T19:36:03.575Z,30.17
2017-11-09T19:38:29.827Z,36.83
2017-11-09T19:40:56.013Z,35.97
2017-11-09T19:43:22.656Z,43.30
2017-11-09T19:45:48.907Z,32.77
2017-11-09T19:48:15.292Z,49.07
2017-11-09T19:50:41.614Z,37.20
2017-11-09T19:53:10.483Z,37.30
2017-11-09T19:55:37.267Z,38.13
2017-11-09T19:58:03.680Z,39.00
2017-11-09T20:00:30.373Z,52.13
2017-11-09T20:02:56.811Z,37.93
2017-11-09T20:05:23.355Z,33.30
2017-11-09T20:07:50.692Z,36.17
2017-11-09T20:10:19.072Z,32.03
2017-11-09T20:12:45.799Z,40.97
2017-11-09T20:15:12.131Z,31.70
2017-11-09T20:27:20.026Z,40.43
2017-11-09T20:29:46.307Z,36.53
2017-11-09T20:32:13.224Z,32.73
2017-11-09T20:34:42.015Z,43.37
2017-11-09T20:37:08.423Z,32.33
2017-11-09T20:39:35.400Z,32.47
2017-11-09T20:42:03.064Z,30.00
2017-11-09T20:44:29.607Z,33.20
2017-11-09T20:46:56.462Z,32.43
2017-11-09T20:49:23.621Z,32.60
2017-11-09T20:51:50.755Z,28.03
2017-11-09T20:54:19.590Z,32.33
2017-11-09T20:56:46.708Z,31.60
2017-11-09T20:59:13.099Z,32.10
2017-11-09T21:01:40.164Z,31.60
2017-11-09T21:04:07.123Z,40.30
2017-11-09T21:06:33.361Z,39.80
2017-11-09T21:09:02.018Z,42.57
2017-11-09T21:11:30.788Z,41.20
2017-11-09T21:13:57.032Z,29.27
2017-11-09T21:16:23.262Z,31.80
2017-11-09T21:18:49.501Z,32.87
2017-11-09T21:21:15.761Z,33.73
2017-11-09T21:23:42.016Z,33.87
2017-11-09T21:26:08.263Z,37.40
2017-11-09T21:28:36.953Z,35.00
2017-11-09T21:31:03.226Z,31.90
2017-11-09T21:33:29.903Z,33.90
2017-11-09T21:35:57.230Z,31.90
2017-11-09T21:38:24.225Z,30.50
2017-11-09T21:40:50.551Z,36.30
2017-11-09T21:43:16.813Z,32.27
2017-11-09T21:45:43.510Z,32.43
2017-11-09T21:48:10.129Z,31.77
2017-11-09T21:50:37.184Z,38.53
2017-11-09T21:53:04.374Z,39.90
2017-11-09T21:55:31.781Z,34.53
2017-11-09T21:57:58.207Z,34.37
2017-11-09T22:00:27.529Z,32.73
2017-11-09T22:02:53.770Z,36.50
2017-11-09T22:05:20.050Z,34.83
2017-11-09T22:07:46.426Z,43.17
2017-11-09T22:10:14.143Z,36.60
2017-11-09T22:12:44.180Z,32.27
2017-11-09T22:15:10.633Z,31.00
2017-11-09T22:17:36.844Z,32.73
2017-11-09T22:20:03.109Z,32.87
2017-11-09T22:22:29.413Z,32.13
2017-11-09T22:24:55.652Z,35.87
2017-11-09T22:27:21.939Z,30.83
2017-11-09T22:29:48.159Z,35.87
2017-11-09T22:32:14.422Z,30.83
2017-11-09T22:34:40.642Z,34.93
2017-11-09T22:37:06.940Z,37.93
2017-11-09T22:39:33.853Z,30.37
2017-11-09T22:42:00.153Z,34.83
2017-11-09T22:44:26.767Z,37.50
2017-11-09T22:46:52.971Z,32.83
2017-11-09T22:49:19.225Z,29.53
2017-11-09T22:51:46.134Z,35.23
2017-11-09T22:54:12.836Z,34.27
2017-11-09T22:56:40.014Z,31.00
2017-11-09T22:59:06.267Z,29.97
2017-11-09T23:01:32.452Z,36.87
2017-11-09T23:03:58.917Z,34.60
2017-11-09T23:16:05.155Z,31.63
2017-11-09T23:18:31.383Z,39.03
2017-11-09T23:21:00.205Z,42.37
2017-11-09T23:23:26.638Z,34.47
2017-11-09T23:25:52.873Z,36.27
2017-11-09T23:28:19.071Z,33.80
2017-11-09T23:30:45.340Z,32.50
2017-11-09T23:33:11.578Z,31.87
2017-11-09T23:35:38.518Z,33.07
2017-11-09T23:38:06.222Z,37.37
2017-11-09T23:40:32.698Z,35.00
2017-11-09T23:43:01.817Z,40.10
2017-11-09T23:45:28.245Z,29.70
2017-11-09T23:47:54.511Z,32.30
2017-11-09T23:50:22.073Z,31.77
2017-11-09T23:52:48.244Z,39.20
2017-11-09T23:55:14.494Z,39.40
2017-11-09T23:57:40.776Z,31.40
